Thunder radar more information blitzortung!


Rain radar more information rain snow radar


Equipment we use:

Davis VP2

Weather Display

BareMetal


Nearby METAR Reports

   
CYAZ - Tofino, BC
Updated: 04-19-2019 18:00
NOT Current
Few Clouds  
Few Clouds  
   Wind: WNW 11.1 km/h
Wind: WNW 11.1 km/h
Temperature: 14°C
Dew Point: 8°C
Humidity: 67%
Barometer: 1015.2 hPa
Clouds: Few Clouds
Visibility: 24 km
Cloud details: Few Clouds 609.6 m,
Few Clouds 1432.6 m,
Few Clouds 2133.6 m
CYAZ 200100Z 30006KT 270V330 15SM FEW020 FEW047 FEW070 14/08 A2998 RMK CU1SC1AC1 AC TR LAST STFD OBS/NEXT 201300UTC SLP152
CYHE - Hope,BC
Updated: 04-20-2019 05:00
Mostly Cloudy  
Mostly Cloudy  
   Wind: East 11.1 km/h
Wind: East 11.1 km/h
Temperature: 8°C
Wind Chill: 6°C
Dew Point: 8°C
Humidity: 100%
Barometer: 1016.6 hPa
Clouds: Mostly Cloudy
Visibility: 15 km
Cloud details: Few Clouds 518.2 m,
Mostly Cloudy 3048 m
CYHE 201200Z AUTO 09006KT 040V120 9SM FEW017 BKN100 08/08 A3002 RMK SLP168
CYYT - St. John's, NL
Updated: 04-20-2019 05:43
Light Showers, Rain, Overcast  
Light Showers, Rain, Overcast  
   Wind: West 20.4 km/h
Wind: West 20.4 km/h
Temperature: 5°C
Wind Chill: 1°C
Dew Point: 5°C
Humidity: 100%
Barometer: 1017.6 hPa
Clouds: Overcast
Visibility: 13 km
Cloud details: Overcast 91.4 m
CYYT 201243Z 27011KT 8SM -SHRA OVC003 05/05 A3005 RMK ST8 CVCTV CLD EMBD SLP184

Script developed by  Saratoga-weather.org Adapted for the template by  Weerstation Leuven